createdAt,value
2023-04-20T00:00:43.923Z,0.00
2023-04-20T00:01:43.948Z,0.00
2023-04-20T00:02:43.962Z,0.00
2023-04-20T00:03:43.991Z,0.00
2023-04-20T00:04:43.885Z,0.00
2023-04-20T00:05:43.884Z,0.00
2023-04-20T00:06:43.878Z,0.00
2023-04-20T00:07:43.865Z,0.00
2023-04-20T00:08:43.863Z,0.00
2023-04-20T00:09:43.967Z,0.00
2023-04-20T00:10:43.844Z,0.00
2023-04-20T00:11:43.835Z,0.00
2023-04-20T00:12:43.826Z,0.00
2023-04-20T00:13:43.818Z,0.00
2023-04-20T00:14:43.830Z,0.00
2023-04-20T00:15:43.806Z,0.00
2023-04-20T00:16:43.846Z,0.00
2023-04-20T00:17:43.802Z,0.00
2023-04-20T00:18:43.780Z,0.00
2023-04-20T00:19:43.764Z,0.00
2023-04-20T00:20:43.753Z,0.00
2023-04-20T00:21:43.750Z,0.00
2023-04-20T00:22:43.749Z,0.00
2023-04-20T00:23:43.729Z,0.00
2023-04-20T00:24:43.724Z,0.00
2023-04-20T00:25:43.724Z,0.00
2023-04-20T00:26:43.712Z,0.00
2023-04-20T00:27:43.697Z,0.00
2023-04-20T00:28:43.694Z,0.00
2023-04-20T00:29:43.689Z,0.00
2023-04-20T00:30:43.692Z,0.00
2023-04-20T00:31:43.677Z,0.00
2023-04-20T00:32:43.705Z,0.00
2023-04-20T00:33:43.636Z,0.00
2023-04-20T00:34:43.642Z,0.00
2023-04-20T00:35:43.635Z,0.00
2023-04-20T00:36:43.628Z,0.00
2023-04-20T00:37:43.624Z,0.00
2023-04-20T00:38:43.618Z,0.00
2023-04-20T00:39:43.611Z,0.00
2023-04-20T00:40:43.590Z,0.00
2023-04-20T00:41:43.584Z,0.00
2023-04-20T00:42:43.585Z,0.00
2023-04-20T00:43:43.571Z,0.00
2023-04-20T00:44:43.554Z,0.00
2023-04-20T00:45:43.550Z,0.00
2023-04-20T00:46:43.631Z,0.00
2023-04-20T00:47:43.600Z,0.00
2023-04-20T00:48:43.522Z,0.00
2023-04-20T00:49:43.543Z,0.00
2023-04-20T00:50:43.502Z,0.00
2023-04-20T00:51:43.499Z,0.00
2023-04-20T00:52:43.493Z,0.00
2023-04-20T00:53:43.486Z,0.00
2023-04-20T00:54:43.482Z,0.00
2023-04-20T00:55:43.461Z,0.00
2023-04-20T00:56:43.455Z,0.00
2023-04-20T00:57:43.458Z,0.00
2023-04-20T00:58:43.449Z,0.00
2023-04-20T00:59:43.428Z,0.00
2023-04-20T01:00:43.422Z,0.00
2023-04-20T01:01:43.435Z,0.00
2023-04-20T01:02:43.524Z,0.00
2023-04-20T01:03:43.572Z,0.00
2023-04-20T01:04:43.394Z,0.00
2023-04-20T01:05:43.380Z,0.00
2023-04-20T01:06:43.365Z,0.00
2023-04-20T01:07:43.352Z,0.00
2023-04-20T01:08:43.352Z,0.00
2023-04-20T01:09:43.368Z,0.00
2023-04-20T01:10:43.360Z,0.00
2023-04-20T01:11:43.333Z,0.00
2023-04-20T01:12:43.319Z,0.00
2023-04-20T01:13:43.306Z,0.00
2023-04-20T01:14:43.298Z,0.00
2023-04-20T01:15:43.311Z,0.00
2023-04-20T01:16:43.298Z,0.00
2023-04-20T01:17:43.371Z,0.00
2023-04-20T01:18:43.265Z,0.00
2023-04-20T01:19:43.255Z,0.00
2023-04-20T01:20:43.248Z,0.00
2023-04-20T01:21:43.249Z,0.00
2023-04-20T01:22:43.232Z,0.00
2023-04-20T01:23:43.229Z,0.00
2023-04-20T01:24:43.217Z,0.00
2023-04-20T01:25:43.204Z,0.00
2023-04-20T01:26:43.198Z,0.00
2023-04-20T01:27:43.190Z,0.00
2023-04-20T01:28:43.188Z,0.00
2023-04-20T01:29:43.169Z,0.00
2023-04-20T01:30:43.161Z,0.00
2023-04-20T01:31:43.166Z,0.00
2023-04-20T01:32:43.187Z,0.00
2023-04-20T01:33:43.147Z,0.00
2023-04-20T01:34:43.132Z,0.00
2023-04-20T01:35:43.133Z,0.00
2023-04-20T01:36:43.111Z,0.00
2023-04-20T01:37:43.106Z,0.00
2023-04-20T01:38:43.097Z,0.00
2023-04-20T01:39:43.153Z,0.00
2023-04-20T01:40:43.078Z,0.00
2023-04-20T01:41:43.072Z,0.00
2023-04-20T01:42:43.062Z,0.00
2023-04-20T01:43:43.060Z,0.00
2023-04-20T01:44:43.047Z,0.00
2023-04-20T01:45:43.064Z,0.00
2023-04-20T01:46:43.089Z,0.00
2023-04-20T01:47:43.046Z,0.00
2023-04-20T01:48:43.014Z,0.00
2023-04-20T01:49:43.008Z,0.00
2023-04-20T01:50:42.999Z,0.00
2023-04-20T01:51:42.997Z,0.00
2023-04-20T01:52:42.987Z,0.00
2023-04-20T01:53:42.973Z,0.00
2023-04-20T01:54:42.975Z,0.00
2023-04-20T01:55:42.952Z,0.00
2023-04-20T01:56:42.949Z,0.00
2023-04-20T01:57:42.938Z,0.00
2023-04-20T01:58:42.934Z,0.00
2023-04-20T01:59:42.936Z,0.00
2023-04-20T02:00:42.934Z,0.00
2023-04-20T02:01:42.942Z,0.00
2023-04-20T02:02:42.984Z,0.00
2023-04-20T02:03:43.006Z,0.00
2023-04-20T02:04:42.882Z,0.00
2023-04-20T02:05:42.882Z,0.00
2023-04-20T02:06:42.870Z,0.00
2023-04-20T02:07:42.859Z,0.00
2023-04-20T02:08:42.856Z,0.00
2023-04-20T02:09:42.850Z,0.00
2023-04-20T02:10:42.833Z,0.00
2023-04-20T02:11:42.857Z,0.00
2023-04-20T02:12:42.831Z,0.00
2023-04-20T02:13:42.818Z,0.00
2023-04-20T02:14:42.803Z,0.00
2023-04-20T02:15:42.803Z,0.00
2023-04-20T02:16:42.852Z,0.00
2023-04-20T02:17:42.808Z,0.00
2023-04-20T02:18:42.769Z,0.00
2023-04-20T02:19:42.760Z,0.00
2023-04-20T02:20:42.752Z,0.00
2023-04-20T02:21:42.749Z,0.00
2023-04-20T02:22:42.744Z,0.00
2023-04-20T02:23:42.723Z,0.00
2023-04-20T02:24:42.723Z,0.00
2023-04-20T02:25:42.708Z,0.00
2023-04-20T02:26:42.706Z,0.00
2023-04-20T02:27:42.701Z,0.00
2023-04-20T02:28:42.691Z,0.00
2023-04-20T02:29:42.683Z,0.00
2023-04-20T02:30:42.676Z,0.00
2023-04-20T02:31:42.738Z,0.00
2023-04-20T02:32:42.684Z,0.00
2023-04-20T02:33:42.655Z,0.00
2023-04-20T02:34:42.664Z,0.00
2023-04-20T02:35:42.640Z,0.00
2023-04-20T02:36:42.625Z,0.00
2023-04-20T02:37:42.617Z,0.00
2023-04-20T02:38:42.614Z,0.00
2023-04-20T02:39:42.601Z,0.00
2023-04-20T02:40:42.593Z,0.00
2023-04-20T02:41:42.596Z,0.00
2023-04-20T02:42:42.578Z,0.00
2023-04-20T02:43:42.571Z,0.00
2023-04-20T02:44:42.572Z,0.00
2023-04-20T02:45:42.560Z,0.00
2023-04-20T02:46:42.584Z,0.00
2023-04-20T02:47:42.562Z,0.00
2023-04-20T02:48:42.532Z,0.00
2023-04-20T02:49:42.529Z,0.00
2023-04-20T02:50:42.521Z,0.00
2023-04-20T02:51:42.506Z,0.00
2023-04-20T02:52:42.503Z,0.00
2023-04-20T02:53:42.506Z,0.00
2023-04-20T02:54:42.492Z,0.00
2023-04-20T02:55:42.479Z,0.00
2023-04-20T02:56:42.480Z,0.00
2023-04-20T02:57:42.459Z,0.00
2023-04-20T02:58:42.453Z,0.00
2023-04-20T02:59:42.443Z,0.00
2023-04-20T03:00:42.441Z,0.00
2023-04-20T03:01:42.479Z,0.00
2023-04-20T03:02:42.518Z,0.00
2023-04-20T03:03:42.597Z,0.00
2023-04-20T03:04:42.436Z,0.00
2023-04-20T03:05:42.420Z,0.00
2023-04-20T03:06:42.391Z,0.00
2023-04-20T03:07:42.389Z,0.00
2023-04-20T03:08:42.382Z,0.00
2023-04-20T03:09:42.378Z,0.00
2023-04-20T03:10:42.366Z,0.00
2023-04-20T03:11:42.364Z,0.00
2023-04-20T03:12:42.340Z,0.00
2023-04-20T03:13:42.344Z,0.00
2023-04-20T03:14:42.334Z,0.00
2023-04-20T03:15:42.346Z,0.00
2023-04-20T03:16:42.388Z,0.00
2023-04-20T03:17:42.338Z,0.00
2023-04-20T03:18:42.307Z,0.00
2023-04-20T03:19:42.298Z,0.00
2023-04-20T03:20:42.289Z,0.00
2023-04-20T03:21:42.275Z,0.00
2023-04-20T03:22:42.270Z,0.00
2023-04-20T03:23:42.265Z,0.00
2023-04-20T03:24:42.255Z,0.00
2023-04-20T03:25:42.245Z,0.00
2023-04-20T03:26:42.243Z,0.00
2023-04-20T03:27:42.245Z,0.00
2023-04-20T03:28:42.232Z,0.00
2023-04-20T03:29:42.228Z,0.00
2023-04-20T03:30:42.219Z,0.00
2023-04-20T03:31:42.264Z,0.00
2023-04-20T03:32:42.270Z,0.00
2023-04-20T03:33:42.213Z,0.00
2023-04-20T03:34:42.175Z,0.00
2023-04-20T03:35:42.164Z,0.00
2023-04-20T03:36:42.155Z,0.00
2023-04-20T03:37:42.159Z,0.00
2023-04-20T03:38:42.144Z,0.00
2023-04-20T03:39:42.135Z,0.00
2023-04-20T03:40:42.127Z,0.00
2023-04-20T03:41:42.119Z,0.00
2023-04-20T03:42:42.104Z,0.00
2023-04-20T03:43:42.102Z,0.00
2023-04-20T03:44:42.097Z,0.00
2023-04-20T03:45:42.101Z,0.00
2023-04-20T03:46:42.076Z,0.00
2023-04-20T03:47:42.140Z,0.00
2023-04-20T03:48:42.081Z,0.00
2023-04-20T03:49:42.052Z,0.00
2023-04-20T03:50:42.053Z,0.00
2023-04-20T03:51:42.030Z,0.00
2023-04-20T03:52:42.034Z,0.00
2023-04-20T03:53:42.024Z,0.00
2023-04-20T03:54:42.020Z,0.00
2023-04-20T03:55:42.010Z,0.00
2023-04-20T03:56:42.006Z,0.00
2023-04-20T03:57:41.995Z,0.00
2023-04-20T03:58:41.994Z,0.00
2023-04-20T03:59:41.983Z,0.00
2023-04-20T04:00:41.958Z,0.00
2023-04-20T04:01:41.964Z,0.00
2023-04-20T04:02:42.031Z,0.00
2023-04-20T04:03:42.022Z,0.00
2023-04-20T04:04:42.036Z,0.00
2023-04-20T04:05:41.978Z,0.00
2023-04-20T04:06:41.920Z,0.00
2023-04-20T04:07:41.911Z,0.00
2023-04-20T04:08:41.912Z,0.00
2023-04-20T04:09:41.902Z,0.00
2023-04-20T04:10:41.892Z,0.00
2023-04-20T04:11:41.879Z,0.00
2023-04-20T04:12:41.877Z,0.00
2023-04-20T04:13:41.875Z,0.00
2023-04-20T04:14:41.857Z,0.00
2023-04-20T04:15:41.854Z,0.00
2023-04-20T04:16:41.850Z,0.00
2023-04-20T04:17:41.909Z,0.00
2023-04-20T04:18:41.823Z,0.00
2023-04-20T04:19:41.820Z,0.00
2023-04-20T04:20:41.809Z,0.00
2023-04-20T04:21:41.799Z,0.00
2023-04-20T04:22:41.795Z,0.00
2023-04-20T04:23:41.781Z,0.00
2023-04-20T04:24:41.777Z,0.00
2023-04-20T04:25:41.775Z,0.00
2023-04-20T04:26:41.765Z,0.00
2023-04-20T04:27:41.754Z,0.00
2023-04-20T04:28:41.746Z,0.00
2023-04-20T04:29:41.767Z,0.00
2023-04-20T04:30:41.726Z,0.00
2023-04-20T04:31:41.894Z,0.00
2023-04-20T04:32:41.768Z,0.00
2023-04-20T04:33:41.714Z,0.00
2023-04-20T04:34:41.694Z,0.00
2023-04-20T04:35:41.746Z,0.00
2023-04-20T04:36:41.679Z,0.00
2023-04-20T04:37:41.672Z,0.00
2023-04-20T04:38:41.657Z,0.00
2023-04-20T04:39:41.652Z,0.00
2023-04-20T04:40:41.657Z,0.00
2023-04-20T04:41:41.643Z,0.00
2023-04-20T04:42:41.627Z,0.00
2023-04-20T04:43:41.621Z,0.00
2023-04-20T04:44:41.616Z,0.00
2023-04-20T04:45:41.614Z,0.00
2023-04-20T04:46:41.692Z,0.00
2023-04-20T04:47:41.615Z,0.00
2023-04-20T04:48:41.587Z,0.00
2023-04-20T04:49:41.582Z,0.00
2023-04-20T04:50:41.570Z,0.00
2023-04-20T04:51:41.561Z,0.00
2023-04-20T04:52:41.551Z,0.00
2023-04-20T04:53:41.545Z,0.00
2023-04-20T04:54:41.550Z,0.00
2023-04-20T04:55:41.533Z,0.00
2023-04-20T04:56:41.540Z,0.00
2023-04-20T04:57:41.513Z,0.00
2023-04-20T04:58:41.513Z,0.00
2023-04-20T04:59:41.510Z,0.00
2023-04-20T05:00:41.497Z,0.00
2023-04-20T05:01:41.504Z,0.00
2023-04-20T05:02:41.756Z,0.00
2023-04-20T05:03:41.572Z,0.00
2023-04-20T05:04:41.559Z,0.00
2023-04-20T05:05:41.443Z,0.00
2023-04-20T05:06:41.436Z,0.00
2023-04-20T05:07:41.440Z,0.00
2023-04-20T05:08:41.418Z,0.00
2023-04-20T05:09:41.407Z,0.00
2023-04-20T05:10:41.406Z,0.00
2023-04-20T05:11:41.399Z,0.00
2023-04-20T05:12:41.379Z,0.00
2023-04-20T05:13:41.377Z,0.00
2023-04-20T05:14:41.383Z,0.00
2023-04-20T05:15:43.710Z,0.00
2023-04-20T05:16:41.473Z,0.00
2023-04-20T05:17:41.427Z,0.00
2023-04-20T05:18:41.351Z,0.00
2023-04-20T05:19:41.330Z,0.00
2023-04-20T05:20:41.316Z,0.00
2023-04-20T05:21:41.311Z,0.00
2023-04-20T05:22:41.320Z,0.00
2023-04-20T05:23:41.301Z,0.00
2023-04-20T05:24:41.283Z,0.00
2023-04-20T05:25:41.285Z,0.00
2023-04-20T05:26:41.267Z,0.00
2023-04-20T05:27:41.271Z,0.00
2023-04-20T05:28:41.256Z,0.00
2023-04-20T05:29:41.252Z,0.00
2023-04-20T05:30:41.234Z,0.00
2023-04-20T05:31:41.240Z,0.00
2023-04-20T05:32:41.238Z,0.00
2023-04-20T05:33:41.214Z,0.00
2023-04-20T05:34:41.217Z,0.00
2023-04-20T05:35:41.200Z,0.00
2023-04-20T05:36:41.191Z,0.00
2023-04-20T05:37:41.181Z,0.00
2023-04-20T05:38:41.175Z,0.00
2023-04-20T05:39:41.163Z,0.00
2023-04-20T05:40:41.158Z,0.00
2023-04-20T05:41:41.147Z,0.00
2023-04-20T05:42:41.134Z,0.00
2023-04-20T05:43:41.190Z,0.00
2023-04-20T05:44:41.123Z,0.00
2023-04-20T05:45:41.154Z,0.00
2023-04-20T05:46:41.113Z,0.00
2023-04-20T05:47:41.121Z,0.00
2023-04-20T05:48:41.095Z,0.00
2023-04-20T05:49:41.082Z,0.00
2023-04-20T05:50:41.071Z,0.00
2023-04-20T05:51:41.064Z,0.00
2023-04-20T05:52:41.053Z,0.00
2023-04-20T05:53:41.051Z,0.00
2023-04-20T05:54:41.043Z,0.00
2023-04-20T05:55:41.050Z,0.00
2023-04-20T05:56:41.027Z,0.00
2023-04-20T05:57:41.037Z,0.00
2023-04-20T05:58:41.008Z,0.00
2023-04-20T05:59:40.998Z,0.00
2023-04-20T06:00:40.996Z,5.63
2023-04-20T06:01:41.016Z,5.63
2023-04-20T06:02:41.029Z,5.63
2023-04-20T06:03:41.094Z,5.63
2023-04-20T06:04:41.084Z,5.63
2023-04-20T06:05:41.057Z,5.63
2023-04-20T06:06:40.941Z,11.25
2023-04-20T06:07:40.971Z,11.25
2023-04-20T06:08:40.925Z,11.25
2023-04-20T06:09:40.917Z,11.25
2023-04-20T06:10:40.907Z,11.25
2023-04-20T06:11:40.907Z,11.25
2023-04-20T06:12:40.888Z,16.88
2023-04-20T06:13:40.889Z,16.88
2023-04-20T06:14:40.873Z,16.88
2023-04-20T06:15:40.917Z,16.88
2023-04-20T06:16:40.858Z,16.88
2023-04-20T06:17:41.538Z,22.50
2023-04-20T06:18:40.858Z,22.50
2023-04-20T06:19:40.859Z,22.50
2023-04-20T06:20:40.829Z,16.88
2023-04-20T06:21:40.828Z,16.88
2023-04-20T06:22:40.819Z,16.88
2023-04-20T06:23:40.848Z,16.88
2023-04-20T06:24:40.804Z,11.25
2023-04-20T06:25:40.790Z,11.25
2023-04-20T06:26:40.781Z,11.25
2023-04-20T06:27:40.785Z,11.25
2023-04-20T06:28:40.775Z,11.25
2023-04-20T06:29:40.789Z,11.25
2023-04-20T06:30:40.764Z,11.25
2023-04-20T06:31:40.791Z,11.25
2023-04-20T06:32:40.782Z,11.25
2023-04-20T06:33:40.822Z,11.25
2023-04-20T06:34:40.706Z,11.25
2023-04-20T06:35:40.691Z,11.25
2023-04-20T06:36:40.694Z,11.25
2023-04-20T06:37:40.698Z,11.25
2023-04-20T06:38:40.686Z,11.25
2023-04-20T06:39:40.666Z,5.63
2023-04-20T06:40:40.654Z,11.25
2023-04-20T06:41:40.666Z,11.25
2023-04-20T06:42:40.644Z,11.25
2023-04-20T06:43:40.640Z,11.25
2023-04-20T06:44:40.618Z,11.25
2023-04-20T06:45:40.623Z,11.25
2023-04-20T06:46:40.623Z,11.25
2023-04-20T06:47:40.637Z,11.25
2023-04-20T06:48:40.593Z,11.25
2023-04-20T06:49:40.581Z,11.25
2023-04-20T06:50:40.572Z,11.25
2023-04-20T06:51:40.572Z,11.25
2023-04-20T06:52:40.564Z,11.25
2023-04-20T06:53:40.559Z,11.25
2023-04-20T06:54:40.539Z,11.25
2023-04-20T06:55:40.537Z,11.25
2023-04-20T06:56:40.519Z,11.25
2023-04-20T06:57:40.523Z,11.25
2023-04-20T06:58:40.515Z,11.25
2023-04-20T06:59:40.495Z,11.25
2023-04-20T07:00:40.494Z,11.25
2023-04-20T07:01:40.566Z,11.25
2023-04-20T07:02:40.524Z,11.25
2023-04-20T07:03:40.669Z,11.25
2023-04-20T07:04:40.507Z,11.25
2023-04-20T07:05:40.483Z,11.25
2023-04-20T07:06:40.438Z,11.25
2023-04-20T07:07:40.457Z,11.25
2023-04-20T07:08:40.458Z,11.25
2023-04-20T07:09:40.422Z,11.25
2023-04-20T07:10:40.407Z,16.88
2023-04-20T07:11:40.401Z,16.88
2023-04-20T07:12:42.664Z,16.88
2023-04-20T07:13:40.385Z,16.88
2023-04-20T07:14:40.372Z,22.50
2023-04-20T07:15:40.364Z,22.50
2023-04-20T07:16:40.405Z,28.13
2023-04-20T07:17:40.425Z,33.75
2023-04-20T07:18:40.353Z,33.75
2023-04-20T07:19:40.333Z,33.75
2023-04-20T07:20:40.364Z,33.75
2023-04-20T07:21:40.523Z,33.75
2023-04-20T07:22:40.310Z,33.75
2023-04-20T07:23:40.821Z,39.38
2023-04-20T07:24:40.285Z,39.38
2023-04-20T07:25:40.289Z,39.38
2023-04-20T07:26:40.315Z,45.00
2023-04-20T07:27:40.268Z,39.38
2023-04-20T07:28:40.257Z,39.38
2023-04-20T07:29:40.308Z,39.38
2023-04-20T07:30:40.262Z,39.38
2023-04-20T07:31:40.263Z,33.75
2023-04-20T07:32:40.280Z,28.13
2023-04-20T07:33:40.233Z,33.75
2023-04-20T07:34:40.206Z,33.75
2023-04-20T07:35:40.197Z,33.75
2023-04-20T07:36:40.243Z,33.75
2023-04-20T07:37:40.685Z,39.38
2023-04-20T07:38:40.182Z,33.75
2023-04-20T07:39:40.171Z,39.38
2023-04-20T07:40:40.161Z,28.13
2023-04-20T07:41:40.146Z,22.50
2023-04-20T07:42:40.182Z,22.50
2023-04-20T07:43:40.449Z,22.50
2023-04-20T07:44:40.123Z,22.50
2023-04-20T07:45:40.198Z,28.13
2023-04-20T07:46:40.118Z,33.75
2023-04-20T07:47:40.130Z,33.75
2023-04-20T07:48:40.080Z,33.75
2023-04-20T07:49:40.073Z,39.38
2023-04-20T07:50:40.061Z,39.38
2023-04-20T07:51:40.054Z,33.75
2023-04-20T07:52:40.061Z,33.75
2023-04-20T07:53:40.057Z,39.38
2023-04-20T07:54:40.037Z,33.75
2023-04-20T07:55:40.020Z,39.38
2023-04-20T07:56:40.033Z,39.38
2023-04-20T07:57:40.000Z,33.75
2023-04-20T07:58:39.990Z,28.13
2023-04-20T07:59:39.984Z,33.75
2023-04-20T08:00:39.985Z,28.13
2023-04-20T08:01:40.181Z,28.13
2023-04-20T08:02:40.041Z,28.13
2023-04-20T08:03:40.179Z,28.13
2023-04-20T08:04:40.134Z,28.13
2023-04-20T08:05:39.993Z,28.13
2023-04-20T08:06:39.916Z,28.13
2023-04-20T08:07:39.937Z,28.13
2023-04-20T08:08:39.907Z,28.13
2023-04-20T08:09:39.943Z,28.13
2023-04-20T08:10:39.892Z,28.13
2023-04-20T08:11:39.880Z,28.13
2023-04-20T08:12:39.865Z,39.38
2023-04-20T08:13:40.138Z,39.38
2023-04-20T08:14:39.838Z,39.38
2023-04-20T08:15:39.873Z,39.38
2023-04-20T08:16:40.118Z,39.38
2023-04-20T08:17:39.835Z,39.38
2023-04-20T08:18:39.811Z,45.00
2023-04-20T08:19:40.484Z,50.63
2023-04-20T08:20:39.796Z,45.00
2023-04-20T08:21:39.784Z,33.75
2023-04-20T08:22:39.793Z,28.13
2023-04-20T08:23:39.761Z,28.13
2023-04-20T08:24:39.752Z,28.13
2023-04-20T08:25:39.735Z,28.13
2023-04-20T08:26:39.739Z,22.50
2023-04-20T08:27:39.727Z,22.50
2023-04-20T08:28:39.717Z,22.50
2023-04-20T08:29:39.703Z,16.88
2023-04-20T08:30:39.717Z,16.88
2023-04-20T08:31:39.714Z,22.50
2023-04-20T08:32:39.687Z,33.75
2023-04-20T08:33:39.668Z,39.38
2023-04-20T08:34:39.704Z,28.13
2023-04-20T08:35:39.663Z,22.50
2023-04-20T08:36:39.645Z,33.75
2023-04-20T08:37:39.634Z,28.13
2023-04-20T08:38:39.628Z,28.13
2023-04-20T08:39:39.615Z,45.00
2023-04-20T08:40:39.615Z,56.25
2023-04-20T08:41:39.599Z,50.63
2023-04-20T08:42:39.585Z,45.00
2023-04-20T08:43:39.572Z,45.00
2023-04-20T08:44:39.567Z,45.00
2023-04-20T08:45:39.562Z,39.38
2023-04-20T08:46:39.619Z,39.38
2023-04-20T08:47:39.581Z,39.38
2023-04-20T08:48:39.540Z,45.00
2023-04-20T08:49:39.545Z,45.00
2023-04-20T08:50:39.515Z,45.00
2023-04-20T08:51:39.528Z,39.38
2023-04-20T08:52:39.505Z,28.13
2023-04-20T08:53:39.492Z,22.50
2023-04-20T08:54:42.841Z,22.50
2023-04-20T08:55:39.474Z,16.88
2023-04-20T08:56:39.467Z,33.75
2023-04-20T08:57:39.477Z,39.38
2023-04-20T08:58:39.447Z,33.75
2023-04-20T08:59:39.440Z,45.00
2023-04-20T09:00:39.431Z,50.63
2023-04-20T09:01:39.584Z,50.63
2023-04-20T09:02:39.500Z,56.25
2023-04-20T09:03:39.511Z,56.25
2023-04-20T09:04:39.519Z,56.25
2023-04-20T09:05:39.391Z,56.25
2023-04-20T09:06:39.376Z,56.25
2023-04-20T09:07:39.371Z,56.25
2023-04-20T09:08:39.362Z,56.25
2023-04-20T09:09:39.349Z,61.88
2023-04-20T09:10:39.348Z,61.88
2023-04-20T09:11:39.334Z,67.50
2023-04-20T09:12:39.338Z,73.13
2023-04-20T09:13:39.333Z,78.75
2023-04-20T09:14:39.320Z,84.38
2023-04-20T09:15:39.306Z,90.00
2023-04-20T09:16:39.395Z,90.00
2023-04-20T09:17:39.347Z,90.00
2023-04-20T09:18:39.310Z,90.00
2023-04-20T09:19:39.275Z,90.00
2023-04-20T09:20:39.260Z,90.00
2023-04-20T09:21:39.266Z,84.38
2023-04-20T09:22:39.246Z,84.38
2023-04-20T09:23:39.257Z,78.75
2023-04-20T09:24:39.237Z,78.75
2023-04-20T09:25:39.228Z,73.13
2023-04-20T09:26:39.215Z,61.88
2023-04-20T09:27:39.209Z,50.63
2023-04-20T09:28:39.199Z,45.00
2023-04-20T09:29:39.185Z,45.00
2023-04-20T09:30:39.186Z,39.38
2023-04-20T09:31:39.232Z,33.75
2023-04-20T09:32:39.228Z,33.75
2023-04-20T09:33:39.159Z,28.13
2023-04-20T09:34:39.157Z,22.50
2023-04-20T09:35:39.144Z,22.50
2023-04-20T09:36:39.143Z,16.88
2023-04-20T09:37:39.129Z,22.50
2023-04-20T09:38:39.129Z,22.50
2023-04-20T09:39:39.115Z,22.50
2023-04-20T09:40:39.100Z,28.13
2023-04-20T09:41:39.105Z,33.75
2023-04-20T09:42:39.088Z,39.38
2023-04-20T09:43:39.069Z,45.00
2023-04-20T09:44:39.068Z,50.63
2023-04-20T09:45:39.128Z,56.25
2023-04-20T09:46:39.053Z,56.25
2023-04-20T09:47:39.084Z,56.25
2023-04-20T09:48:39.035Z,56.25
2023-04-20T09:49:39.028Z,67.50
2023-04-20T09:50:48.355Z,73.13
2023-04-20T09:51:39.010Z,78.75
2023-04-20T09:52:39.008Z,67.50
2023-04-20T09:53:38.994Z,56.25
2023-04-20T09:54:38.990Z,56.25
2023-04-20T09:55:38.971Z,50.63
2023-04-20T09:56:38.965Z,50.63
2023-04-20T09:57:38.958Z,50.63
2023-04-20T09:58:38.983Z,39.38
2023-04-20T09:59:38.945Z,39.38
2023-04-20T10:00:38.936Z,56.25
2023-04-20T10:01:38.966Z,67.50
2023-04-20T10:02:39.012Z,73.13
2023-04-20T10:03:39.098Z,84.38
2023-04-20T10:04:39.077Z,90.00
2023-04-20T10:05:38.899Z,90.00
2023-04-20T10:06:38.901Z,90.00
2023-04-20T10:07:38.864Z,106.88
2023-04-20T10:08:38.868Z,213.75
2023-04-20T10:09:38.925Z,163.13
2023-04-20T10:10:38.851Z,315.00
2023-04-20T10:11:51.666Z,545.63
2023-04-20T10:12:38.839Z,106.88
2023-04-20T10:13:38.824Z,106.88
2023-04-20T10:14:38.822Z,106.88
2023-04-20T10:15:38.833Z,73.13
2023-04-20T10:16:38.898Z,73.13
2023-04-20T10:17:38.877Z,67.50
2023-04-20T10:18:38.920Z,61.88
2023-04-20T10:19:38.807Z,67.50
2023-04-20T10:20:38.775Z,73.13
2023-04-20T10:21:38.765Z,90.00
2023-04-20T10:22:38.764Z,84.38
2023-04-20T10:23:38.751Z,73.13
2023-04-20T10:24:38.743Z,67.50
2023-04-20T10:25:38.744Z,61.88
2023-04-20T10:26:38.734Z,56.25
2023-04-20T10:27:38.720Z,50.63
2023-04-20T10:28:38.732Z,33.75
2023-04-20T10:29:38.706Z,33.75
2023-04-20T10:30:38.769Z,45.00
2023-04-20T10:31:38.723Z,45.00
2023-04-20T10:32:38.726Z,39.38
2023-04-20T10:33:38.713Z,39.38
2023-04-20T10:34:38.667Z,50.63
2023-04-20T10:35:59.666Z,56.25
2023-04-20T10:36:38.652Z,56.25
2023-04-20T10:37:38.646Z,50.63
2023-04-20T10:38:38.641Z,50.63
2023-04-20T10:39:38.635Z,33.75
2023-04-20T10:40:38.624Z,33.75
2023-04-20T10:41:38.614Z,33.75
2023-04-20T10:42:38.608Z,33.75
2023-04-20T10:43:38.595Z,39.38
2023-04-20T10:44:38.589Z,45.00
2023-04-20T10:45:38.682Z,50.63
2023-04-20T10:46:38.603Z,50.63
2023-04-20T10:47:38.604Z,50.63
2023-04-20T10:48:38.567Z,61.88
2023-04-20T10:49:38.565Z,95.63
2023-04-20T10:50:38.553Z,236.25
2023-04-20T10:51:38.528Z,438.75
2023-04-20T10:52:38.522Z,511.88
2023-04-20T10:53:38.560Z,528.75
2023-04-20T10:54:38.540Z,495.00
2023-04-20T10:55:38.496Z,174.38
2023-04-20T10:56:38.487Z,511.88
2023-04-20T10:57:38.490Z,151.88
2023-04-20T10:58:38.483Z,112.50
2023-04-20T10:59:38.469Z,157.50
2023-04-20T11:00:38.459Z,292.50
2023-04-20T11:01:38.497Z,101.25
2023-04-20T11:02:38.545Z,331.88
2023-04-20T11:03:38.565Z,444.38
2023-04-20T11:04:38.461Z,258.75
2023-04-20T11:05:38.520Z,241.88
2023-04-20T11:06:38.430Z,95.63
2023-04-20T11:07:38.416Z,56.25
2023-04-20T11:08:38.410Z,50.63
2023-04-20T11:09:38.460Z,50.63
2023-04-20T11:10:38.395Z,45.00
2023-04-20T11:11:38.395Z,33.75
2023-04-20T11:12:38.383Z,33.75
2023-04-20T11:13:38.377Z,33.75
2023-04-20T11:14:38.431Z,50.63
2023-04-20T11:15:38.375Z,73.13
2023-04-20T11:16:49.589Z,106.88
2023-04-20T11:17:38.391Z,146.25
2023-04-20T11:18:38.346Z,298.13
2023-04-20T11:19:38.365Z,376.88
2023-04-20T11:20:38.331Z,354.38
2023-04-20T11:21:38.318Z,326.25
2023-04-20T11:22:38.312Z,230.63
2023-04-20T11:23:38.315Z,225.00
2023-04-20T11:24:38.315Z,106.88
2023-04-20T11:25:38.292Z,67.50
2023-04-20T11:26:38.290Z,67.50
2023-04-20T11:27:38.282Z,84.38
2023-04-20T11:28:38.289Z,84.38
2023-04-20T11:29:38.300Z,73.13
2023-04-20T11:30:39.035Z,90.00
2023-04-20T11:31:38.422Z,95.63
2023-04-20T11:32:38.600Z,90.00
2023-04-20T11:33:38.284Z,73.13
2023-04-20T11:34:38.240Z,73.13
2023-04-20T11:35:38.233Z,78.75
2023-04-20T11:36:38.229Z,78.75
2023-04-20T11:37:38.218Z,78.75
2023-04-20T11:38:38.209Z,61.88
2023-04-20T11:39:38.223Z,61.88
2023-04-20T11:40:38.208Z,56.25
2023-04-20T11:41:38.201Z,50.63
2023-04-20T11:42:38.185Z,45.00
2023-04-20T11:43:38.172Z,45.00
2023-04-20T11:44:38.177Z,56.25
2023-04-20T11:45:38.190Z,50.63
2023-04-20T11:46:38.159Z,45.00
2023-04-20T11:47:38.190Z,50.63
2023-04-20T11:48:38.147Z,67.50
2023-04-20T11:49:38.145Z,50.63
2023-04-20T11:50:39.800Z,61.88
2023-04-20T11:51:38.124Z,67.50
2023-04-20T11:52:38.133Z,61.88
2023-04-20T11:53:38.135Z,73.13
2023-04-20T11:54:38.098Z,84.38
2023-04-20T11:55:38.095Z,90.00
2023-04-20T11:56:38.091Z,84.38
2023-04-20T11:57:38.092Z,67.50
2023-04-20T11:58:38.083Z,61.88
2023-04-20T11:59:38.063Z,56.25
2023-04-20T12:00:38.057Z,56.25
2023-04-20T12:01:38.049Z,73.13
2023-04-20T12:02:38.135Z,73.13
2023-04-20T12:03:38.157Z,67.50
2023-04-20T12:04:38.086Z,61.88
2023-04-20T12:05:38.068Z,78.75
2023-04-20T12:06:38.010Z,84.38
2023-04-20T12:07:38.009Z,84.38
2023-04-20T12:08:37.992Z,95.63
2023-04-20T12:09:37.994Z,95.63
2023-04-20T12:10:37.987Z,95.63
2023-04-20T12:11:37.990Z,95.63
2023-04-20T12:12:37.976Z,90.00
2023-04-20T12:13:37.963Z,90.00
2023-04-20T12:14:38.029Z,84.38
2023-04-20T12:15:37.999Z,90.00
2023-04-20T12:16:37.945Z,95.63
2023-04-20T12:17:37.971Z,90.00
2023-04-20T12:18:37.933Z,90.00
2023-04-20T12:19:37.919Z,84.38
2023-04-20T12:20:37.913Z,78.75
2023-04-20T12:21:37.903Z,78.75
2023-04-20T12:22:37.906Z,78.75
2023-04-20T12:23:37.905Z,67.50
2023-04-20T12:24:37.889Z,67.50
2023-04-20T12:25:37.875Z,73.13
2023-04-20T12:26:38.960Z,67.50
2023-04-20T12:27:37.870Z,67.50
2023-04-20T12:28:37.862Z,61.88
2023-04-20T12:29:37.864Z,45.00
2023-04-20T12:30:37.860Z,45.00
2023-04-20T12:31:37.896Z,61.88
2023-04-20T12:32:37.918Z,61.88
2023-04-20T12:33:37.828Z,56.25
2023-04-20T12:34:37.824Z,50.63
2023-04-20T12:35:37.811Z,45.00
2023-04-20T12:36:37.801Z,56.25
2023-04-20T12:37:37.806Z,78.75
2023-04-20T12:38:37.800Z,73.13
2023-04-20T12:39:37.787Z,61.88
2023-04-20T12:40:37.778Z,67.50
2023-04-20T12:41:37.780Z,67.50
2023-04-20T12:42:37.770Z,67.50
2023-04-20T12:43:37.759Z,61.88
2023-04-20T12:44:37.753Z,56.25
2023-04-20T12:45:37.745Z,56.25
2023-04-20T12:46:37.776Z,50.63
2023-04-20T12:47:37.740Z,45.00
2023-04-20T12:48:37.742Z,50.63
2023-04-20T12:49:37.725Z,50.63
2023-04-20T12:50:37.709Z,45.00
2023-04-20T12:51:37.720Z,39.38
2023-04-20T12:52:37.699Z,56.25
2023-04-20T12:53:37.690Z,61.88
2023-04-20T12:54:37.713Z,73.13
2023-04-20T12:55:37.682Z,78.75
2023-04-20T12:56:37.690Z,67.50
2023-04-20T12:57:37.667Z,61.88
2023-04-20T12:58:37.677Z,61.88
2023-04-20T12:59:37.677Z,56.25
2023-04-20T13:00:37.681Z,61.88
2023-04-20T13:01:37.641Z,56.25
2023-04-20T13:02:37.789Z,50.63
2023-04-20T13:03:37.835Z,39.38